SBGOSBBH

Guest
Details From SBGO - Santo Genoveva
To SBBH - Pampulha
Flight Number -
Tags generated
Created
Modified
Stats Distance 410 nm / 760 km
Max Altitude 35,000 ft / 10,668 m
Waypoints 7
Social Downloads 2
Likes 0
Share VATSIM

Download

Looking for another format? Having issues loading an existing format? Contact us
Advertisement - Login to hide

Notes

Basic altitude profile: - Ascent Rate: 2000ft/min - Ascent Speed: 200kts - Cruise Altitude: 35000ft - Cruise Speed: 300kts - Descent Rate: 1500ft/min - Descent Speed: 200kts Options: - Use NATs: yes - Use PACOTS: yes - Use low airways: no - Use high airways: yes

Route

SBGO ALONG UW12 OPACO SBBH

ID Type Via Altitude Latitude Longitude Leg Dist Tot Dist Heading (true) Name
O SBGO APT - 0 ft / 0 m -16.63203˚ -49.22069˚ - 0 nm - Santo Genoveva
ALONG FIX - 31,400 ft / 9,571 m -16.03775˚ -47.77242˚ 90 nm 90 nm 67° / 67° -
PROVE FIX UW12 (AWY-HI) 35,000 ft / 10,668 m -16.82783˚ -46.56833˚ 84 nm 174 nm 125° / 124° -
PRUMO FIX UW12 (AWY-HI) 35,000 ft / 10,668 m -17.40800˚ -46.09983˚ 44 nm 218 nm 142° / 142° -
TRM VOR UW12 (AWY-HI) 27,000 ft / 8,230 m -18.20317˚ -45.45700˚ 60 nm 279 nm 143° / 142° TRES MARIAS VOR-DME
OPACO FIX UW12 (AWY-HI) 23,500 ft / 7,163 m -18.96483˚ -44.66950˚ 64 nm 343 nm 136° / 135° -
O SBBH APT - 0 ft / 0 m -19.85118˚ -43.95063˚ 67 nm 410 nm 143° / 142° Pampulha

Altitude Profile

Advertisement - Login to hide

Weather


0- 5 10 15 20 25 30 35+ Temperature / ° C

Clouds and Precipitation
Forecast for 2017-12-15 12:00 UTC. Updated an hour ago

Ground ~20,000 ft ~40,000 ft Winds

SBGO

Details ICAO SBGO (GYN)
Name Santo Genoveva
Region Brazil
Timezone America/Sao_Paulo (UTC-2.0)
Stats Elevation 2,450 ft / 747 m (AMSL)
Location -16.632032° -49.220686°
Runways 1
Magnetic Variation 20.989° W

METAR

SBGO 150800Z 01004KT 9999 VCSH SCT017 OVC090 21/20 Q1015

Decode

TAF

TAF SBGO 150200Z 1506/1606 05008KT 9999 SCT030 TN20/1509Z TX26/1518Z PROB40 TEMPO 1506/1508 9000 RA SCT020 FM151200 05009KT 9999 SCT020 TEMPO 1519/1522 34010KT 9999 SHRA SCT025 FEW030TCU RMK PCZ

Decode

Departure Runways

ID Width Length Bearing (true) Bearing (mag) Surface Threshold Offset Overrun Length
14 148 ft / 45 m 8,208 ft / 2,502 m 120.42° 141.41° Asphalt 0 ft / 0 m 0 ft / 0 m
32 148 ft / 45 m 8,208 ft / 2,502 m 300.41° 321.40° Asphalt 980 ft / 299 m 0 ft / 0 m

SBBH

Details ICAO SBBH (PLU)
Name Pampulha
Region Brazil
Timezone America/Sao_Paulo (UTC-2.0)
Stats Elevation 2,589 ft / 789 m (AMSL)
Location -19.851179° -43.950626°
Runways 1
Magnetic Variation 22.798° W

METAR

SBBH 150800Z 07003KT CAVOK 18/16 Q1018

Decode

TAF

Not found

Destination Runways

ID Width Length Bearing (true) Bearing (mag) Surface Threshold Offset Overrun Length
13 148 ft / 45 m 8,214 ft / 2,504 m 110.63° 133.43° Asphalt 0 ft / 0 m 200 ft / 61 m
31 148 ft / 45 m 8,214 ft / 2,504 m 290.62° 313.42° Asphalt 0 ft / 0 m 200 ft / 61 m

Popular Alternatives